createdAt,value
2017-12-03T00:03:42.367Z,57.03
2017-12-03T00:08:44.938Z,39.47
2017-12-03T00:13:47.478Z,40.67
2017-12-03T00:18:50.019Z,50.63
2017-12-03T00:23:53.327Z,40.57
2017-12-03T00:28:56.638Z,38.90
2017-12-03T00:33:59.961Z,39.27
2017-12-03T00:39:02.500Z,47.43
2017-12-03T00:44:05.048Z,39.87
2017-12-03T00:49:07.586Z,47.63
2017-12-03T00:54:10.132Z,39.07
2017-12-03T00:59:12.667Z,49.73
2017-12-03T01:04:15.204Z,42.00
2017-12-03T01:09:17.782Z,44.30
2017-12-03T01:14:20.323Z,50.70
2017-12-03T01:19:22.870Z,40.23
2017-12-03T01:24:25.411Z,44.30
2017-12-03T01:29:27.954Z,48.03
2017-12-03T01:34:30.502Z,39.03
2017-12-03T01:39:33.060Z,43.10
2017-12-03T01:44:35.623Z,43.93
2017-12-03T01:49:38.166Z,43.50
2017-12-03T01:54:40.702Z,44.67
2017-12-03T01:59:43.227Z,43.43
2017-12-03T02:04:45.774Z,49.10
2017-12-03T02:09:48.313Z,50.67
2017-12-03T02:14:50.867Z,45.50
2017-12-03T02:19:53.422Z,41.50
2017-12-03T02:24:55.971Z,47.73
2017-12-03T02:29:58.515Z,41.37
2017-12-03T02:35:01.050Z,40.50
2017-12-03T02:40:03.584Z,50.80
2017-12-03T02:45:06.123Z,38.30
2017-12-03T02:50:09.445Z,35.00
2017-12-03T02:55:11.975Z,42.50
2017-12-03T03:00:14.531Z,43.13
2017-12-03T03:05:17.070Z,38.50
2017-12-03T03:10:19.606Z,31.93
2017-12-03T03:15:22.154Z,42.40
2017-12-03T03:20:24.707Z,39.90
2017-12-03T03:25:27.234Z,34.03
2017-12-03T03:30:30.538Z,42.10
2017-12-03T03:35:33.842Z,39.07
2017-12-03T03:40:36.383Z,32.40
2017-12-03T03:45:38.955Z,42.40
2017-12-03T03:50:41.498Z,40.57
2017-12-03T03:55:44.044Z,39.17
2017-12-03T04:00:46.591Z,40.80
2017-12-03T04:05:49.142Z,40.30
2017-12-03T04:10:51.687Z,39.03
2017-12-03T04:15:54.240Z,40.43
2017-12-03T04:20:56.758Z,47.23
2017-12-03T04:25:59.307Z,36.13
2017-12-03T04:31:01.855Z,33.90
2017-12-03T04:36:04.398Z,37.63
2017-12-03T04:41:06.935Z,53.13
2017-12-03T04:46:09.463Z,32.60
2017-12-03T04:51:12.003Z,38.40
2017-12-03T04:56:14.542Z,34.30
2017-12-03T05:01:17.084Z,35.87
2017-12-03T05:06:19.630Z,35.17
2017-12-03T05:11:22.956Z,36.00
2017-12-03T05:16:25.492Z,36.77
2017-12-03T05:21:28.066Z,34.63
2017-12-03T05:26:30.603Z,33.10
2017-12-03T05:31:33.142Z,41.33
2017-12-03T05:36:35.674Z,35.47
2017-12-03T05:41:38.204Z,42.03
2017-12-03T05:46:40.746Z,40.50
2017-12-03T05:51:44.042Z,40.57
2017-12-03T05:56:46.598Z,35.67
2017-12-03T06:01:49.151Z,43.43
2017-12-03T06:06:52.466Z,40.80
2017-12-03T06:11:55.781Z,39.77
2017-12-03T06:16:59.104Z,38.13
2017-12-03T06:22:02.438Z,36.87
2017-12-03T06:27:04.998Z,37.23
2017-12-03T06:32:07.538Z,38.70
2017-12-03T06:37:10.071Z,36.37
2017-12-03T06:42:12.596Z,44.80
2017-12-03T06:47:15.173Z,31.13
2017-12-03T06:52:17.710Z,35.13
2017-12-03T06:57:20.251Z,37.20
2017-12-03T07:02:22.798Z,29.87
2017-12-03T07:07:25.343Z,42.73
2017-12-03T07:12:27.901Z,38.50
2017-12-03T07:17:30.439Z,32.40
2017-12-03T07:22:32.975Z,35.83
2017-12-03T07:27:35.543Z,47.80
2017-12-03T07:32:38.095Z,42.13
2017-12-03T07:37:40.635Z,40.03
2017-12-03T07:42:43.218Z,46.00
2017-12-03T07:47:45.756Z,32.83
2017-12-03T07:52:48.342Z,39.83
2017-12-03T07:57:50.892Z,33.57
2017-12-03T08:02:54.211Z,51.20
2017-12-03T08:07:57.516Z,43.90
2017-12-03T08:13:00.059Z,38.93
2017-12-03T08:18:02.589Z,38.10
2017-12-03T08:23:05.126Z,40.97
2017-12-03T08:28:07.675Z,40.83
2017-12-03T08:33:10.212Z,43.17
2017-12-03T08:38:13.530Z,48.37
2017-12-03T08:43:16.091Z,39.87
2017-12-03T08:48:18.643Z,42.20
2017-12-03T08:53:21.208Z,29.17
2017-12-03T08:58:23.763Z,36.23
2017-12-03T09:03:26.314Z,35.30
2017-12-03T09:08:29.667Z,34.87
2017-12-03T09:13:32.288Z,38.37
2017-12-03T09:18:34.826Z,43.13
2017-12-03T09:23:38.138Z,40.23
2017-12-03T09:28:40.667Z,40.00
2017-12-03T09:33:43.227Z,43.93
2017-12-03T09:38:45.792Z,42.50
2017-12-03T09:43:48.340Z,36.30
2017-12-03T09:48:50.883Z,35.93
2017-12-03T09:53:53.442Z,50.80
2017-12-03T09:58:56.772Z,38.40
2017-12-03T10:03:59.331Z,35.87
2017-12-03T10:09:02.111Z,35.63
2017-12-03T10:14:04.647Z,35.03
2017-12-03T10:19:07.207Z,39.33
2017-12-03T10:24:09.739Z,33.57
2017-12-03T10:29:12.286Z,33.37
2017-12-03T10:34:14.830Z,38.20
2017-12-03T10:39:17.375Z,51.83
2017-12-03T10:44:19.903Z,34.07
2017-12-03T10:49:22.445Z,29.17
2017-12-03T10:54:24.999Z,26.13
2017-12-03T10:59:27.538Z,24.03
2017-12-03T11:04:30.107Z,30.43
2017-12-03T11:09:32.653Z,24.43
2017-12-03T11:14:35.964Z,19.20
2017-12-03T11:19:38.498Z,16.87
2017-12-03T11:24:41.065Z,14.33
2017-12-03T11:29:44.373Z,14.03
2017-12-03T11:34:46.905Z,17.47
2017-12-03T11:39:49.443Z,17.73
2017-12-03T11:44:51.967Z,17.50
2017-12-03T11:49:54.515Z,20.33
2017-12-03T11:54:57.066Z,14.80
2017-12-03T11:59:59.603Z,22.80
2017-12-03T12:05:02.142Z,21.70
2017-12-03T12:10:04.683Z,20.40
2017-12-03T12:15:07.218Z,23.67
2017-12-03T12:20:09.775Z,16.30
2017-12-03T12:25:12.326Z,16.57
2017-12-03T12:30:14.896Z,25.53
2017-12-03T12:35:17.437Z,18.83
2017-12-03T12:40:19.983Z,21.27
2017-12-03T12:45:22.533Z,19.97
2017-12-03T12:50:25.070Z,25.73
2017-12-03T12:55:27.610Z,21.17
2017-12-03T13:00:30.143Z,28.30
2017-12-03T13:05:32.687Z,23.93
2017-12-03T13:10:35.235Z,21.97
2017-12-03T13:15:37.779Z,20.90
2017-12-03T13:20:40.307Z,25.07
2017-12-03T13:25:43.617Z,26.70
2017-12-03T13:30:46.206Z,24.50
2017-12-03T13:35:48.763Z,19.77
2017-12-03T13:40:51.301Z,25.67
2017-12-03T13:45:53.840Z,25.83
2017-12-03T13:50:57.154Z,19.90
2017-12-03T13:55:59.698Z,18.80
2017-12-03T14:01:02.223Z,19.83
2017-12-03T14:06:04.782Z,24.53
2017-12-03T14:11:07.326Z,29.47
2017-12-03T14:16:09.870Z,23.03
2017-12-03T14:21:12.411Z,21.20
2017-12-03T14:26:16.208Z,19.47
2017-12-03T14:31:24.184Z,22.40
2017-12-03T14:36:32.242Z,18.07
2017-12-03T14:41:37.110Z,22.30
2017-12-03T14:46:41.930Z,24.63
2017-12-03T14:51:49.374Z,23.67
2017-12-03T14:56:56.679Z,25.97
2017-12-03T15:02:03.515Z,27.57
2017-12-03T15:07:08.542Z,24.50
2017-12-03T15:12:13.122Z,23.70
2017-12-03T15:17:20.038Z,30.60
2017-12-03T15:22:24.079Z,24.43
2017-12-03T15:27:27.047Z,22.30
2017-12-03T15:32:29.600Z,28.83
2017-12-03T15:37:32.196Z,23.70
2017-12-03T15:42:34.747Z,32.07
2017-12-03T15:47:37.297Z,27.97
2017-12-03T15:52:39.843Z,25.80
2017-12-03T15:57:42.404Z,23.80
2017-12-03T16:02:44.949Z,23.33
2017-12-03T16:07:47.475Z,31.70
2017-12-03T16:12:50.800Z,26.60
2017-12-03T16:17:54.112Z,21.60
2017-12-03T16:22:56.670Z,21.40
2017-12-03T16:27:59.225Z,31.97
2017-12-03T16:33:01.771Z,27.63
2017-12-03T16:38:04.313Z,30.43
2017-12-03T16:43:06.873Z,31.33
2017-12-03T16:48:09.411Z,30.00
2017-12-03T16:53:11.956Z,28.00
2017-12-03T16:58:14.483Z,30.63
2017-12-03T17:03:17.794Z,25.80
2017-12-03T17:08:20.346Z,25.67
2017-12-03T17:13:22.908Z,24.17
2017-12-03T17:18:26.203Z,26.90
2017-12-03T17:23:28.756Z,28.40
2017-12-03T17:28:31.307Z,26.47
2017-12-03T17:33:34.623Z,38.50
2017-12-03T17:38:37.166Z,40.50
2017-12-03T17:43:39.727Z,23.70
2017-12-03T17:48:43.056Z,26.70
2017-12-03T17:53:46.372Z,16.80
2017-12-03T17:58:48.928Z,32.50
2017-12-03T18:03:51.460Z,24.70
2017-12-03T18:08:53.995Z,26.80
2017-12-03T18:13:56.535Z,28.40
2017-12-03T18:18:59.071Z,24.73
2017-12-03T18:24:01.607Z,30.97
2017-12-03T18:29:04.142Z,34.37
2017-12-03T18:34:06.671Z,30.63
2017-12-03T18:39:12.130Z,31.37
2017-12-03T18:44:24.232Z,31.67
2017-12-03T18:49:27.450Z,28.77
2017-12-03T18:54:33.467Z,35.77
2017-12-03T18:59:40.680Z,28.27
2017-12-03T19:04:43.871Z,35.63
2017-12-03T19:09:48.771Z,35.70
2017-12-03T19:14:52.634Z,25.70
2017-12-03T19:20:06.001Z,48.00
2017-12-03T19:25:13.206Z,34.93
2017-12-03T19:30:17.580Z,36.27
2017-12-03T19:35:22.173Z,36.03
2017-12-03T19:40:24.740Z,31.30
2017-12-03T19:45:27.314Z,32.20
2017-12-03T19:50:29.907Z,30.33
2017-12-03T19:55:32.459Z,35.40
2017-12-03T20:00:35.796Z,33.70
2017-12-03T20:05:38.355Z,24.73
2017-12-03T20:10:40.912Z,38.77
2017-12-03T20:15:43.496Z,37.30
2017-12-03T20:20:46.037Z,30.23
2017-12-03T20:25:48.587Z,30.73
2017-12-03T20:30:51.134Z,30.37
2017-12-03T20:35:53.750Z,40.67
2017-12-03T20:40:56.298Z,36.10
2017-12-03T20:45:58.851Z,32.47
2017-12-03T20:51:01.419Z,37.40
2017-12-03T20:56:03.984Z,39.77
2017-12-03T21:01:06.543Z,34.67
2017-12-03T21:06:09.863Z,33.47
2017-12-03T21:11:12.419Z,32.57
2017-12-03T21:16:14.990Z,38.50
2017-12-03T21:21:17.554Z,39.40
2017-12-03T21:26:20.886Z,30.57
2017-12-03T21:31:24.199Z,38.93
2017-12-03T21:36:26.807Z,38.10
2017-12-03T21:41:30.131Z,36.33
2017-12-03T21:46:32.666Z,32.27
2017-12-03T21:51:35.225Z,31.30
2017-12-03T21:56:38.527Z,30.43
2017-12-03T22:01:41.822Z,34.10
2017-12-03T22:06:44.361Z,33.07
2017-12-03T22:11:46.902Z,26.30
2017-12-03T22:16:49.460Z,31.97
2017-12-03T22:27:05.191Z,25.17
2017-12-03T22:32:07.748Z,31.20
2017-12-03T22:37:10.292Z,33.07
2017-12-03T22:42:12.833Z,31.20
2017-12-03T22:47:15.371Z,32.13
2017-12-03T22:52:17.923Z,28.30
2017-12-03T22:57:20.479Z,37.20
2017-12-03T23:02:23.022Z,29.80
2017-12-03T23:07:25.542Z,27.17
2017-12-03T23:12:28.082Z,27.90
2017-12-03T23:17:30.632Z,26.53
2017-12-03T23:22:33.167Z,33.40
2017-12-03T23:27:35.711Z,27.90
2017-12-03T23:32:38.254Z,29.23
2017-12-03T23:37:40.825Z,30.43
2017-12-03T23:42:43.465Z,26.20
2017-12-03T23:47:46.016Z,29.23
2017-12-03T23:52:48.565Z,24.87
2017-12-03T23:57:51.113Z,34.33
